International Telecommunication Union   ITU
عربي  |  中文  |  Español  |  Français  |  Русский
 
 Advanced Search Advanced Search Site map Contact us Print version
  Home : ITU-R : Space Services : SNL : Query result
Radiocommunication Sector (ITU-R)  
SNL Part B - Query result
The Parts and Special Sections are not available online. They can be found in the collection of the BR WIC and BR IFIC DVD-ROM.
You can order it or get more information about this DVD-ROM

Your query :  / IFIC = 2719
Complete list  - Explanations  - Export in txt format  - Export in Excel format 
Total line = 200/305
Go to page : 12
ID number
(SNS)
admORG or
Geo.area
Satellite nameEarth stationlong_nomDate of receiptssn_refssn_nossn rev/ Supssn rev noPart/ Art.WIC/IFIC (ific.mdb)WIC/IFIC
date
up down up down up down up down up down up down up down up down up down    up down  
 103552010 G  AM-SAT AF3 BSS  51 15.12.2011 AP30/E 352   B 2719 15.05.2012
 111552014 PNG  PACIFISAT BSS-148.1E  148.1 24.05.2011 AP30/E 566   D 2719 15.05.2012
 111552015 PNG  PACIFISAT BSS-146.1E  146.1 30.05.2011 AP30/E 567   D 2719 15.05.2012
 104555003 G  USAT-S1 MOD-A  -105.5 04.03.2004 AP30-30A/E 356   C 2719 15.05.2012
 105556004 G  USAT-S1 TT&C  -105.5 12.04.2005 AP30-30A/F/C 20 S   2719 15.05.2012
 103554010 G  AM-SAT AF3 BSS  51 15.12.2011 AP30A/E 352   B 2719 15.05.2012
 105554004 EGY  NILESAT-103  -7 31.03.2005 AP30A/E 388 M 1 A 2719 15.05.2012
 110554025 BUL  BULSAT-BSS-1.2W-W  1.9 04.11.2010 AP30A/E 542 M 1 D 2719 15.05.2012
 111554014 PNG  PACIFISAT BSS-148.1E  148.1 30.05.2011 AP30A/E 566   D 2719 15.05.2012
 111554015 PNG  PACIFISAT BSS-146.1E  146.1 30.05.2011 AP30A/E 567   D 2719 15.05.2012
 104540563 G  SNS  N-GSO 03.11.2011 API/A 3342 S   2719 15.05.2012
 105540915 RUS  WSDRN-M  -16 13.12.2011 API/A 3982 M 5  2719 15.05.2012
 105540916 RUS  CSDRN-M  95 13.12.2011 API/A 3983 M 5  2719 15.05.2012
 105540917 RUS  VSSRD-2M  167 13.12.2011 API/A 3984 M 5  2719 15.05.2012
 110540169 ISR  AMS-CK-4W  -4 16.02.2012 API/A 6185 M 1  2719 15.05.2012
 110540173 ISR  AMS-CK-17E  17 16.02.2012 API/A 6189 M 2  2719 15.05.2012
 110540174 ISR  AMS-CK-23E  23 16.02.2012 API/A 6190 M 1  2719 15.05.2012
 111540586 G  UKDSAT-A2  -33.5 02.02.2012 API/A 7070 M 1  2719 15.05.2012
 111540587 G  UKDSAT-B1  31 02.02.2012 API/A 7071 M 1  2719 15.05.2012
 111540588 G  UKDSAT-B2  39 02.02.2012 API/A 7072 M 1  2719 15.05.2012
 111540589 G  UKDSAT-C1  61.5 02.02.2012 API/A 7073 M 1  2719 15.05.2012
 111540590 G  UKDSAT-C2  55 02.02.2012 API/A 7074 M 1  2719 15.05.2012
 111540930 ISR  AMS-C1-126E  126 16.02.2012 API/A 7235 M 1  2719 15.05.2012
 111540931 ISR  AMS-C1-132E  132 16.02.2012 API/A 7236 M 1  2719 15.05.2012
 111540932 ISR  AMS-C1-138E  138 16.02.2012 API/A 7237 M 1  2719 15.05.2012
 111540934 NOR  CUBESTAR  N-GSO 23.11.2011 API/A 7242    2719 15.05.2012
 111540946 POL  PW-SAT  N-GSO 12.12.2011 API/A 7289    2719 15.05.2012
 111540997 RUS  POTOK-ISS  N-GSO 13.12.2011 API/A 7302    2719 15.05.2012
 112540016 KAZ  DZZ-HR  N-GSO 13.01.2012 API/A 7335    2719 15.05.2012
 112540074 KOR  KHUSAT-01  N-GSO 16.01.2012 API/A 7363    2719 15.05.2012
 112540161 J  SHINDAI SAT  N-GSO 13.02.2012 API/A 7438    2719 15.05.2012
 112540166 F  AST-W-135W  -135 27.02.2012 API/A 7442    2719 15.05.2012
 112540167 F  AST-W-132W  -132 27.02.2012 API/A 7443    2719 15.05.2012
 112540168 F  AST-W-127W  -127 27.02.2012 API/A 7444    2719 15.05.2012
 112540169 F  AST-W-121W  -121 27.02.2012 API/A 7445    2719 15.05.2012
 112540170 F  AST-W-115W  -115 27.02.2012 API/A 7446    2719 15.05.2012
 112540174 F  F-SAT-N2-57W  -57 27.02.2012 API/A 7447    2719 15.05.2012
 112540175 F  F-SAT-N2-56.5W  -56.5 27.02.2012 API/A 7448    2719 15.05.2012
 112540176 F  F-SAT-N2-54W  -54 27.02.2012 API/A 7449    2719 15.05.2012
 112540177 F  F-SAT-N2-52W  -52 27.02.2012 API/A 7450    2719 15.05.2012
 112540178 F  F-SAT-N2-51.5W  -51.5 27.02.2012 API/A 7451    2719 15.05.2012
 112540179 F  F-SAT-N2-49.5W  -49.5 27.02.2012 API/A 7452    2719 15.05.2012
 112540180 F  F-SAT-N2-48W  -48 27.02.2012 API/A 7453    2719 15.05.2012
 112540181 F  F-SAT-N2-47W  -47 27.02.2012 API/A 7454    2719 15.05.2012
 112540182 F  F-SAT-N2-42.5W  -42.5 27.02.2012 API/A 7455    2719 15.05.2012
 112540183 F  F-SAT-N2-39W  -39 27.02.2012 API/A 7456    2719 15.05.2012
 112540184 F  F-SAT-N2-36W  -36 27.02.2012 API/A 7457    2719 15.05.2012
 112540185 F  F-SAT-N2-34W  -34 27.02.2012 API/A 7458    2719 15.05.2012
 112540186 F  F-SAT-N2-32W  -32 27.02.2012 API/A 7459    2719 15.05.2012
 112540187 F  F-SAT-N2-28W  -28 27.02.2012 API/A 7460    2719 15.05.2012
 112540188 F  F-SAT-N2-24W  -24 27.02.2012 API/A 7461    2719 15.05.2012
 112540189 F  F-SAT-N2-21W  -21 27.02.2012 API/A 7462    2719 15.05.2012
 112540190 F  F-SAT-N-A-14.8W  -14.8 27.02.2012 API/A 7463    2719 15.05.2012
 112540191 F  F-SAT-N-A-12.5W  -12.5 27.02.2012 API/A 7464    2719 15.05.2012
 112540192 F  F-SAT-N-A-11W  -11 27.02.2012 API/A 7465    2719 15.05.2012
 112540193 F  F-SAT-N-A-9.5W  -9.5 27.02.2012 API/A 7466    2719 15.05.2012
 112540194 F  F-SAT-N-A-8W  -8 27.02.2012 API/A 7467    2719 15.05.2012
 112540195 F  F-SAT-N-A-7W  -7 27.02.2012 API/A 7468    2719 15.05.2012
 112540196 F  F-SAT-N-A-6W  -6 27.02.2012 API/A 7469    2719 15.05.2012
 112540197 F  F-SAT-N-A-5W  -5 27.02.2012 API/A 7470    2719 15.05.2012
 112540198 F  F-SAT-N-A-3W  -3 27.02.2012 API/A 7471    2719 15.05.2012
 112540199 F  F-SAT-N-A-1E  1 27.02.2012 API/A 7472    2719 15.05.2012
 112540200 F  F-SAT-N-A-1.6E  1.6 27.02.2012 API/A 7473    2719 15.05.2012
 112540201 F  F-SAT-N-A-3E  3 27.02.2012 API/A 7474    2719 15.05.2012
 112540202 F  F-SAT-N-A-4E  4 27.02.2012 API/A 7475    2719 15.05.2012
 112540204 F  F-SAT-N-A-7E  7 27.02.2012 API/A 7476    2719 15.05.2012
 112540205 F  F-SAT-N-A-8.5E  8.5 27.02.2012 API/A 7477    2719 15.05.2012
 112540206 F  F-SAT-N-A-9E  9 27.02.2012 API/A 7478    2719 15.05.2012
 112540207 F  F-SAT-N-A-10E  10 27.02.2012 API/A 7479    2719 15.05.2012
 112540208 F  F-SAT-N-A-11.5E  11.5 27.02.2012 API/A 7480    2719 15.05.2012
 112540209 F  F-SAT-N-A-13E  13 27.02.2012 API/A 7481    2719 15.05.2012
 112540210 F  F-SAT-N-A-14.5E  14.5 27.02.2012 API/A 7482    2719 15.05.2012
 112540211 F  F-SAT-N-A-16E  16 27.02.2012 API/A 7483    2719 15.05.2012
 112540212 F  F-SAT-N-A-17.5E  17.5 27.02.2012 API/A 7484    2719 15.05.2012
 112540213 F  F-SAT-N-A-21.5E  21.5 27.02.2012 API/A 7485    2719 15.05.2012
 112540214 F  F-SAT-N-A-25.5E  25.5 27.02.2012 API/A 7486    2719 15.05.2012
 112540215 F  F-SAT-N-A-27E  27 27.02.2012 API/A 7487    2719 15.05.2012
 112540216 F  F-SAT-N-A-28.5E  28.5 27.02.2012 API/A 7488    2719 15.05.2012
 112540217 F  F-SAT-N-A-33E  33 27.02.2012 API/A 7489    2719 15.05.2012
 112540218 F  F-SAT-N-A-34.5E  34.5 27.02.2012 API/A 7490    2719 15.05.2012
 112540219 F  F-SAT-N-A-36E  36 27.02.2012 API/A 7491    2719 15.05.2012
 112540220 F  F-SAT-N-A-37.5E  37.5 27.02.2012 API/A 7492    2719 15.05.2012
 112540221 F  F-SAT-N-A-40E  40 27.02.2012 API/A 7493    2719 15.05.2012
 112540222 F  F-SAT-N-A-48E  48 27.02.2012 API/A 7494    2719 15.05.2012
 112540223 F  F-SAT-N-A-58.45E  58.45 27.02.2012 API/A 7495    2719 15.05.2012
 112540224 F  F-SAT-N-A-70.5E  70.5 27.02.2012 API/A 7496    2719 15.05.2012
 112540225 F  F-SAT-N-A-73.5E  73.5 27.02.2012 API/A 7497    2719 15.05.2012
 112540226 F  F-SAT-N-A-76E  76 27.02.2012 API/A 7498    2719 15.05.2012
 112540227 F  F-SAT-N-A-80.5E  80.5 27.02.2012 API/A 7499    2719 15.05.2012
 112540228 F  F-SAT-N-A-83.5E  83.5 27.02.2012 API/A 7500    2719 15.05.2012
 112540229 F  F-SAT-N-A-88.5E  88.5 27.02.2012 API/A 7501    2719 15.05.2012
 112540230 F  F-SAT-N-A-96E  96 27.02.2012 API/A 7502    2719 15.05.2012
 112540231 F  F-SAT-N-A-133.5E  133.5 27.02.2012 API/A 7503    2719 15.05.2012
 112540232 F  F-SAT-N-A-137E  137 27.02.2012 API/A 7504    2719 15.05.2012
 112540233 F  F-SAT-N-A-155.9E  155.9 27.02.2012 API/A 7505    2719 15.05.2012
 112540234 F  F-SAT-N-A-163.5E  163.5 27.02.2012 API/A 7506    2719 15.05.2012
 112540235 F  F-SAT-N-A-164.1E  164.1 27.02.2012 API/A 7507    2719 15.05.2012
 112540236 F  F-SAT-N-A-169E  169 27.02.2012 API/A 7508    2719 15.05.2012
 112540237 F  F-SAT-N-A-170.5E  170.5 27.02.2012 API/A 7509    2719 15.05.2012
 112540163 NOR  DUB DUB-4-1.7W  -1.7 29.02.2012 API/A 7510    2719 15.05.2012
 112540162 NOR  HINCUBE  N-GSO 21.02.2012 API/A 7513    2719 15.05.2012
 112540203 F  F-SAT-N-A-5.5E  5.5 27.02.2012 API/A 7514    2719 15.05.2012
 108540410 CHN  SHENZHOU  N-GSO 16.09.2011 API/B 253    2719 15.05.2012
 111540555 IND  INSAT-NAVR-GS  N-GSO 22.07.2011 API/B 254    2719 15.05.2012
 111540792 J  WE WISH  N-GSO 16.09.2011 API/B 255    2719 15.05.2012
  USA  FLTSATCOM-B EAST ATL  -23 22.09.2011 AR11/A 48 S   2719 15.05.2012
  USA  FLTSATCOM-B EAST PAC  -100 22.09.2011 AR11/A 50 S   2719 15.05.2012
  USA  FLTSATCOM-A W PAC  156 22.09.2011 AR11/A 335 S   2719 15.05.2012
  J  GMS-120E  120 30.01.2012 AR11/A 604 S   2719 15.05.2012
  NOR  BIFROST  -0.8 22.03.2012 AR11/A 894 S   2719 15.05.2012
 90500179 CAN  ANIK D-2  -114.9 04.04.2012 AR11/C 1788 S   2719 15.05.2012
 96520502 RUS  YAMAL-E5  163.5 13.01.2012 AR11/C 3037 S   2719 15.05.2012
 101520096 USA  USBUD-1  100 03.04.2012 CR/C 862 S   2719 15.05.2012
 111520086 F  F-SAT-N1-1.6E  1.6 25.03.2011 CR/D 1994 M 1  2719 15.05.2012
 111520087 F  F-SAT-N1-3E  3 25.03.2011 CR/D 1995 M 1  2719 15.05.2012
 111520088 F  F-SAT-N1-4E  4 25.03.2011 CR/D 1996 M 1  2719 15.05.2012
 111520089 F  F-SAT-N1-7E  7 25.03.2011 CR/D 1997 M 1  2719 15.05.2012
 111520091 F  F-SAT-N1-10E  10 25.03.2011 CR/D 1998 M 1  2719 15.05.2012
 111520092 F  F-SAT-N1-13E  13 25.03.2011 CR/D 1999 M 1  2719 15.05.2012
 111520093 F  F-SAT-N1-16E  16 25.03.2011 CR/D 2000 M 1  2719 15.05.2012
 111520094 F  F-SAT-N1-21.5E  21.5 25.03.2011 CR/D 2001 M 1  2719 15.05.2012
 111520095 F  F-SAT-N1-25.5E  25.5 25.03.2011 CR/D 2002 M 1  2719 15.05.2012
 111520096 F  F-SAT-N1-3W  -3 25.03.2011 CR/D 2003 M 1  2719 15.05.2012
 111520097 F  F-SAT-N1-5W  -5 25.03.2011 CR/D 2004 M 1  2719 15.05.2012
 111520098 F  F-SAT-N1-7W  -7 25.03.2011 CR/D 2005 M 1  2719 15.05.2012
 111520099 F  F-SAT-N1-8W  -8 25.03.2011 CR/D 2006 M 1  2719 15.05.2012
 111520100 F  F-SAT-N1-12.5W  -12.5 25.03.2011 CR/D 2007 M 1  2719 15.05.2012
 111520072 F  F-SAT-N-6W  -6 22.03.2011 CR/D 2028 M 1  2719 15.05.2012
 111520073 F  F-SAT-N-9.5W  -9.5 22.03.2011 CR/D 2029 M 1  2719 15.05.2012
 111520075 F  F-SAT-N-5.5E  5.5 22.03.2011 CR/D 2030 M 1  2719 15.05.2012
 111520076 F  F-SAT-N-8.5E  8.5 22.03.2011 CR/D 2031 M 1  2719 15.05.2012
 111520079 F  F-SAT-N-17.5E  17.5 22.03.2011 CR/D 2032 M 1  2719 15.05.2012
 111520082 F  F-SAT-N-37.5E  37.5 22.03.2011 CR/D 2033 M 1  2719 15.05.2012
 111520083 G  INMARSAT-S1-R  8.5 24.03.2011 CR/D 2034 M 1  2719 15.05.2012
 111520084 G  INMARSAT-S2-R  31 24.03.2011 CR/D 2035 M 1  2719 15.05.2012
 111520085 G  INMARSAT-S3-R  61.5 24.03.2011 CR/D 2036 M 1  2719 15.05.2012
 111520090 F  F-SAT-N1-9E  9 25.03.2011 CR/D 2038 M 1  2719 15.05.2012
 111520150 CYP  KYPROS-APHRODITE-2  90 27.04.2011 CR/D 2052    2719 15.05.2012
 111520193 CYP  KYPROS-ATHENA-2  22.5 27.04.2011 CR/D 2053    2719 15.05.2012
 111520194 CYP  KYPROS-HERMES-2  57 27.04.2011 CR/D 2054    2719 15.05.2012
 111520195 CYP  KYPROS-POSEIDON-2  -52.5 27.04.2011 CR/D 2055    2719 15.05.2012
 111520196 CYP  KYPROS-ZEUS-2  54 27.04.2011 CR/D 2056    2719 15.05.2012
 111520133 F  F-SAT-N1-14.8W  -14.8 29.04.2011 CR/D 2057    2719 15.05.2012
 111520155 PNG  NEW DAWN 29  -45 12.05.2011 CR/D 2058    2719 15.05.2012
 111520156 PNG  NEW DAWN 30  -53 12.05.2011 CR/D 2059    2719 15.05.2012
 111520157 PNG  NEW DAWN 31  -58 12.05.2011 CR/D 2060    2719 15.05.2012
 111520158 PNG  NEW DAWN 32  -43 12.05.2011 CR/D 2061    2719 15.05.2012
 106520148 RUS  CSDRN-M  95 08.11.2011 CR/E 192    2719 15.05.2012
 106520149 RUS  VSSRD-2M  167 07.09.2011 CR/E 193    2719 15.05.2012
 106520150 RUS  WSDRN-M  -16 07.09.2011 CR/E 194    2719 15.05.2012
 110520055 J  BBISS-2D  52.5 05.09.2011 CR/E 195    2719 15.05.2012
 110520056 J  BBISS-2E  87 05.09.2011 CR/E 196    2719 15.05.2012
 111520306 F  AST-102W  -102 01.09.2011 CR/E 197    2719 15.05.2012
 111520325 RUS  AMG-76.5E  76.5 08.09.2011 CR/E 198    2719 15.05.2012
 111512021 D EUM METEOSAT IODC_57.5E  57.5 28.10.2011 PART III-S     2719 15.05.2012
 111512022 LUX  LUX-G3-28.2E  28.2 29.11.2011 PART III-S     2719 15.05.2012
 109500171 D  GENESIS-8  13 12.10.2011 PART III-S     2719 15.05.2012
 110500152 LUX  LUX-G3-24.2E  23.5 29.11.2011 PART III-S     2719 15.05.2012
 109500335 I  SICRAL-3H  11.8 12.09.2011 PART III-S     2719 15.05.2012
 107500115 J  JMCS-2  110 23.02.2009 PART III-S     2719 15.05.2012
 110500336 S  SIRIUS-5E  5 17.12.2010 PART III-S     2719 15.05.2012
 110512039 B  B-SAT-1J  -68 10.04.2010 PART III-S     2719 15.05.2012
 111500200 G  INTELSAT N KA 11.5E  11.5 20.10.2011 PART III-S     2719 15.05.2012
 112570001 VEN  VENESAT-30B  -78 02.04.2012 PART II-S     2719 15.05.2012
 111560003 G  AM-SAT AF3 BSS  51 15.12.2011 PART II-S     2719 15.05.2012
 111560004 G  AM-SAT AF3 BSS  51 15.12.2011 PART II-S     2719 15.05.2012
 111500203 USA  USASAT-50D  -43 01.11.2011 PART II-S     2719 15.05.2012
 111500204 CHN  CHNSAT-130E  130 25.10.2011 PART II-S     2719 15.05.2012
 111500205 CAN  CASSIOPE-1A  N-GSO 28.10.2011 PART II-S     2719 15.05.2012
 111500206 D EUM METEOSAT IODC_57.5E  57.5 28.10.2011 PART II-S     2719 15.05.2012
 111500213 USA  USASAT-28K  -85.2 03.11.2011 PART II-S     2719 15.05.2012
 111500227 USA  USASAT-70V  -99.2 17.11.2011 PART II-S     2719 15.05.2012
 111500228 USA  USASAT-70W  -102.8 17.11.2011 PART II-S     2719 15.05.2012
 111500238 LUX  LUX-G3-28.2E  28.2 29.11.2011 PART II-S     2719 15.05.2012
 111505440 RUS  EXPRESS-7B DIVASIY3/MEDIASPUTNI 90 07.12.2011 PART II-S     2719 15.05.2012
 111505443 RUS  EXPRESS-7B KASHARY1/HN7000 90 07.12.2011 PART II-S     2719 15.05.2012
 111505444 RUS  EXPRESS-7B KRASNO1/HN7000 90 07.12.2011 PART II-S     2719 15.05.2012
 111505445 RUS  EXPRESS-7B LENINSK2/HN7000 90 07.12.2011 PART II-S     2719 15.05.2012
 111505446 RUS  EXPRESS-7B NOVOTRO1/IDIRECT-2 90 07.12.2011 PART II-S     2719 15.05.2012
 111505447 RUS  EXPRESS-7B ORLIK1/HN7740 90 07.12.2011 PART II-S     2719 15.05.2012
 111505448 RUS  EXPRESS-7B PALKINO/YAMAL-18K 90 07.12.2011 PART II-S     2719 15.05.2012
 111505449 RUS  EXPRESS-7B P-GORY/YAMAL-18K 90 07.12.2011 PART II-S     2719 15.05.2012
 111505450 RUS  EXPRESS-7B SMOLENS6/DIRECWAY 90 07.12.2011 PART II-S     2719 15.05.2012
 111505451 RUS  EXPRESS-7B SMOLENS7/DIRECWAY 90 07.12.2011 PART II-S     2719 15.05.2012
 111505452 RUS  EXPRESS-7B SMOLENS8/DIRECWAY 90 07.12.2011 PART II-S     2719 15.05.2012
 111505453 RUS  EXPRESS-7B ST-TAMAN/DW-6000 90 07.12.2011 PART II-S     2719 15.05.2012
 111505455 RUS  EXPRESS-7B ZAKAM25/HN7740 90 07.12.2011 PART II-S     2719 15.05.2012
 108501124 USA  TDRS 12W  -12 08.03.2010 PART II-S     2719 15.05.2012
 108501125 USA  TDRS 133E  133 08.03.2010 PART II-S     2719 15.05.2012
 109500171 D  GENESIS-8  13 12.10.2011 PART II-S     2719 15.05.2012
 110500271 MEX  MEXSAT-114.9 C-KU  -114.9 21.10.2011 PART II-S     2719 15.05.2012
 93500227 USA  TDRS 46W  -46 07.11.2011 PART II-S     2719 15.05.2012
 101500534 USA  TDRS 49W  -49 07.11.2011 PART II-S     2719 15.05.2012
 91910045 USA  TDRS 62W  -62 07.11.2011 PART II-S     2719 15.05.2012
 95500076 USA  TDRS 85E  85 07.11.2011 PART II-S     2719 15.05.2012
 108501062 USA  TDRS 89E  89 07.11.2011 PART II-S     2719 15.05.2012
 90500641 USA  TDRS 174W  -174 07.11.2011 PART II-S     2719 15.05.2012
 90500646 USA  TDRS EAST  -41 07.11.2011 PART II-S     2719 15.05.2012
 110500152 LUX  LUX-G3-24.2E  23.5 29.11.2011 PART II-S     2719 15.05.2012
Total line = 200/305
Go to page : 12

 

Top - Feedback - Contact us -  Copyright © ITU 2014 All Rights Reserved
Contact for this page : Webmaster
Updated : 2014-09-02